createdAt,value
2018-07-08T06:20:06.358Z,195
2018-07-08T06:21:09.611Z,161.8
2018-07-08T06:22:12.587Z,159.3
2018-07-08T06:23:15.846Z,155.4
2018-07-08T06:24:18.822Z,152
2018-07-08T06:25:22.084Z,149.6
2018-07-08T06:26:25.111Z,147.1
2018-07-08T06:27:28.085Z,145.7
2018-07-08T06:28:30.797Z,143.2
2018-07-08T06:29:34.059Z,142.2
2018-07-08T06:30:37.036Z,142.7
2018-07-08T06:31:40.425Z,140.8
2018-07-08T06:32:43.511Z,141.3
2018-07-08T06:33:46.489Z,141.3
2018-07-08T06:34:49.472Z,142.2
2018-07-08T06:35:52.456Z,141.7
2018-07-08T06:36:55.709Z,141.7
2018-07-08T06:37:58.415Z,141.7
2018-07-08T06:39:01.124Z,140.3
2018-07-08T06:40:04.386Z,139.3
2018-07-08T06:41:07.646Z,140.8
2018-07-08T06:42:10.684Z,139.3
2018-07-08T06:43:13.678Z,139.8
2018-07-08T06:44:16.927Z,139.3
2018-07-08T06:45:20.195Z,140.3
2018-07-08T06:46:23.607Z,139.8
2018-07-08T06:47:26.595Z,139.8
2018-07-08T06:48:29.602Z,140.3
2018-07-08T06:49:32.574Z,140.3
2018-07-08T06:50:35.291Z,140.3
2018-07-08T06:51:38.284Z,139.8
2018-07-08T06:52:41.543Z,138.8
2018-07-08T06:53:44.227Z,139.8
2018-07-08T06:54:47.488Z,139.3
2018-07-08T06:55:50.752Z,138.8
2018-07-08T06:56:53.731Z,139.8
2018-07-08T06:57:57.017Z,139.8
2018-07-08T06:59:00.406Z,138.3
2018-07-08T07:00:03.665Z,138.3
2018-07-08T07:01:06.626Z,139.8
2018-07-08T07:02:09.609Z,139.8
2018-07-08T07:03:12.867Z,139.8
2018-07-08T07:04:16.111Z,139.8
2018-07-08T07:05:18.808Z,138.3
2018-07-08T07:06:21.788Z,138.3
2018-07-08T07:07:25.057Z,138.3
2018-07-08T07:08:27.211Z,139.8
2018-07-08T07:09:30.212Z,138.8
2018-07-08T07:10:33.491Z,138.3
2018-07-08T07:11:36.763Z,139.8
2018-07-08T07:12:39.761Z,138.3
2018-07-08T07:13:42.748Z,139.8
2018-07-08T07:14:46.013Z,138.8
2018-07-08T07:15:49.275Z,138.8
2018-07-08T07:16:52.256Z,139.3
2018-07-08T07:17:55.525Z,139.3
2018-07-08T07:18:58.793Z,138.8
2018-07-08T07:20:02.036Z,138.8
2018-07-08T07:21:05.277Z,137.8
2018-07-08T07:22:08.536Z,139.3
2018-07-08T07:23:11.785Z,137.3
2018-07-08T07:24:14.773Z,138.8
2018-07-08T07:25:18.024Z,137.8
2018-07-08T07:26:21.004Z,138.8
2018-07-08T07:27:24.565Z,139.3
2018-07-08T07:28:27.618Z,139.3
2018-07-08T07:29:30.615Z,138.8
2018-07-08T07:30:33.557Z,139.3
2018-07-08T07:31:36.816Z,139.3
2018-07-08T07:32:40.070Z,138.3
2018-07-08T07:33:43.320Z,138.3
2018-07-08T07:34:46.045Z,139.3
2018-07-08T07:35:49.011Z,139.8
2018-07-08T07:36:52.274Z,139.3
2018-07-08T07:37:55.252Z,139.3
2018-07-08T07:38:57.963Z,138.3
2018-07-08T07:40:01.225Z,138.3
2018-07-08T07:41:03.922Z,137.8
2018-07-08T07:42:07.181Z,137.3
2018-07-08T07:43:10.204Z,138.8
2018-07-08T07:44:13.463Z,138.8
2018-07-08T07:45:16.787Z,138.8
2018-07-08T07:46:19.775Z,139.3
2018-07-08T07:47:22.830Z,138.8
2018-07-08T07:48:25.868Z,138.8
2018-07-08T07:49:28.869Z,137.8
2018-07-08T07:50:31.872Z,138.8
2018-07-08T07:51:34.865Z,138.3
2018-07-08T07:52:38.134Z,138.3
2018-07-08T07:53:41.401Z,138.8
2018-07-08T07:54:44.388Z,138.3
2018-07-08T07:55:47.644Z,138.8
2018-07-08T07:56:50.630Z,139.3
2018-07-08T07:57:53.875Z,138.8
2018-07-08T07:58:56.720Z,139.3
2018-07-08T08:00:00.012Z,139.8
2018-07-08T08:01:03.271Z,138.3
2018-07-08T08:02:05.965Z,138.8
2018-07-08T08:03:09.244Z,138.8
2018-07-08T08:04:12.520Z,138.3
2018-07-08T08:05:15.506Z,137.8
2018-07-08T08:06:18.222Z,139.3
2018-07-08T08:07:21.486Z,138.8
2018-07-08T08:08:24.790Z,138.3
2018-07-08T08:09:28.143Z,139.8
2018-07-08T08:10:31.143Z,139.3
2018-07-08T08:11:34.396Z,138.8
2018-07-08T08:12:37.655Z,138.3
2018-07-08T08:13:40.642Z,139.3
2018-07-08T08:14:43.634Z,139.3
2018-07-08T08:15:46.892Z,138.8
2018-07-08T08:16:50.154Z,139.8
2018-07-08T08:17:53.397Z,138.8
2018-07-08T08:18:56.658Z,138.8
2018-07-08T08:19:59.367Z,139.8
2018-07-08T08:21:02.807Z,138.8
2018-07-08T08:22:05.581Z,138.8
2018-07-08T08:23:08.836Z,137.8
2018-07-08T08:24:11.846Z,138.3
2018-07-08T08:25:15.111Z,138.3
2018-07-08T08:26:18.439Z,137.3
2018-07-08T08:27:21.404Z,139.3
2018-07-08T08:28:24.097Z,137.8
2018-07-08T08:29:27.053Z,137.8
2018-07-08T08:30:30.038Z,138.8
2018-07-08T08:31:33.001Z,137.3
2018-07-08T08:32:36.261Z,136.9
2018-07-08T08:33:39.506Z,137.8
2018-07-08T08:34:42.773Z,138.3
2018-07-08T08:35:45.758Z,138.3
2018-07-08T08:36:48.745Z,138.3
2018-07-08T08:37:51.457Z,137.3
2018-07-08T08:38:54.450Z,139.3
2018-07-08T08:39:57.703Z,139.8
2018-07-08T08:41:00.983Z,140.8
2018-07-08T08:42:03.834Z,140.3
2018-07-08T08:43:06.522Z,141.3
2018-07-08T08:44:08.929Z,141.3
2018-07-08T08:45:11.630Z,140.3
2018-07-08T08:46:15.239Z,138.3
2018-07-08T08:47:18.488Z,139.8
2018-07-08T08:48:21.751Z,140.3
2018-07-08T08:49:25.020Z,138.8
2018-07-08T08:50:28.020Z,140.3
2018-07-08T08:51:30.980Z,138.8
2018-07-08T08:52:34.170Z,139.3
2018-07-08T08:53:37.572Z,138.3
2018-07-08T08:54:40.828Z,138.8
2018-07-08T08:55:43.814Z,140.3
2018-07-08T08:56:46.813Z,140.3
2018-07-08T08:57:50.123Z,139.8
2018-07-08T08:58:53.087Z,139.3
2018-07-08T08:59:56.546Z,139.3
2018-07-08T09:00:59.507Z,140.8
2018-07-08T09:02:02.779Z,140.3
2018-07-08T09:03:06.040Z,138.8
2018-07-08T09:04:09.486Z,139.3
2018-07-08T09:05:12.756Z,138.3
2018-07-08T09:06:16.025Z,139.3
2018-07-08T09:07:19.029Z,140.3
2018-07-08T09:08:22.296Z,140.3
2018-07-08T09:09:25.267Z,138.8
2018-07-08T09:10:28.256Z,139.8
2018-07-08T09:11:31.521Z,139.8
2018-07-08T09:12:34.777Z,140.3
2018-07-08T09:13:38.142Z,139.3
2018-07-08T09:14:41.101Z,140.3
2018-07-08T09:15:44.462Z,139.8
2018-07-08T09:16:47.434Z,139.3
2018-07-08T09:17:50.428Z,139.8
2018-07-08T09:18:53.120Z,139.8
2018-07-08T09:19:56.372Z,139.8
2018-07-08T09:20:59.336Z,139.8
2018-07-08T09:22:02.324Z,139.8
2018-07-08T09:23:05.582Z,140.3
2018-07-08T09:24:08.563Z,139.8
2018-07-08T09:25:12.002Z,139.3
2018-07-08T09:26:15.256Z,139.3
2018-07-08T09:27:18.229Z,140.8
2018-07-08T09:28:21.233Z,140.3
2018-07-08T09:29:24.680Z,140.3
2018-07-08T09:30:28.184Z,139.8
2018-07-08T09:31:31.168Z,139.8
2018-07-08T09:32:34.831Z,140.3
2018-07-08T09:33:38.206Z,138.8
2018-07-08T09:34:41.456Z,138.3
2018-07-08T09:35:44.725Z,140.3
2018-07-08T09:36:47.978Z,138.8
2018-07-08T09:37:51.230Z,138.3
2018-07-08T09:38:55.485Z,140.3
2018-07-08T09:39:58.579Z,138.8
2018-07-08T09:41:01.611Z,138.8
2018-07-08T09:42:04.880Z,139.3
2018-07-08T09:43:08.130Z,140.3
2018-07-08T09:44:11.396Z,139.8
2018-07-08T09:45:14.656Z,139.8
2018-07-08T09:46:17.667Z,140.3
2018-07-08T09:47:20.917Z,139.3
2018-07-08T09:48:24.165Z,139.8
2018-07-08T09:49:27.423Z,138.8
2018-07-08T09:50:30.685Z,138.3
2018-07-08T09:51:33.950Z,139.8
2018-07-08T09:52:36.588Z,140.8
2018-07-08T09:53:39.265Z,139.8
2018-07-08T09:54:42.248Z,140.3
2018-07-08T09:55:45.647Z,139.3
2018-07-08T09:56:48.647Z,139.3
2018-07-08T09:57:51.178Z,140.8
2018-07-08T09:58:54.431Z,139.8
2018-07-08T09:59:57.417Z,140.8
2018-07-08T10:01:00.458Z,140.3
2018-07-08T10:02:03.514Z,140.3
2018-07-08T10:03:06.776Z,139.8
2018-07-08T10:04:09.466Z,140.3
2018-07-08T10:05:12.448Z,140.8
2018-07-08T10:06:15.434Z,142.2
2018-07-08T10:07:18.411Z,141.7
2018-07-08T10:08:21.405Z,140.8
2018-07-08T10:09:24.666Z,140.3
2018-07-08T10:10:27.644Z,140.8
2018-07-08T10:11:30.915Z,139.3
2018-07-08T10:12:33.746Z,142.2
2018-07-08T10:13:36.789Z,140.3
2018-07-08T10:14:40.104Z,141.7
2018-07-08T10:15:43.364Z,140.3
2018-07-08T10:16:46.620Z,139.3
2018-07-08T10:17:50.861Z,141.3
2018-07-08T10:18:54.687Z,140.3
2018-07-08T10:19:57.937Z,141.3
2018-07-08T10:21:01.186Z,139.3
2018-07-08T10:22:03.882Z,140.3
2018-07-08T10:23:07.148Z,139.8
2018-07-08T10:24:10.118Z,140.8
2018-07-08T10:25:13.533Z,140.8
2018-07-08T10:26:16.800Z,140.8
2018-07-08T10:27:19.783Z,140.8
2018-07-08T10:28:23.163Z,140.3
2018-07-08T10:29:26.414Z,140.3
2018-07-08T10:30:30.135Z,139.3
2018-07-08T10:31:33.394Z,140.3
2018-07-08T10:32:36.378Z,140.8
2018-07-08T10:33:39.096Z,140.3
2018-07-08T10:34:42.090Z,139.8
2018-07-08T10:35:45.339Z,139.3
2018-07-08T10:36:48.581Z,138.3
2018-07-08T10:37:51.531Z,140.3
2018-07-08T10:38:54.788Z,138.8
2018-07-08T10:39:58.053Z,138.3
2018-07-08T10:41:01.510Z,139.3
2018-07-08T10:42:04.210Z,139.8
2018-07-08T10:43:07.206Z,138.8
2018-07-08T10:44:10.465Z,138.8
2018-07-08T10:45:13.482Z,138.3
2018-07-08T10:46:16.472Z,139.3
2018-07-08T10:47:19.730Z,139.3
2018-07-08T10:48:22.992Z,139.8
2018-07-08T10:49:25.959Z,139.8
2018-07-08T10:50:28.950Z,140.8
2018-07-08T10:51:31.934Z,139.3
2018-07-08T10:52:34.922Z,140.3
2018-07-08T10:53:38.183Z,139.3
2018-07-08T10:54:41.203Z,138.3
2018-07-08T10:55:44.184Z,138.8
2018-07-08T10:56:47.435Z,139.8
2018-07-08T10:57:50.431Z,138.8
2018-07-08T10:58:53.107Z,139.8
2018-07-08T10:59:56.374Z,140.3
2018-07-08T11:00:59.073Z,137.8
2018-07-08T11:02:01.774Z,138.8
2018-07-08T11:03:05.027Z,138.3
2018-07-08T11:04:07.480Z,139.3
2018-07-08T11:05:10.737Z,139.8
2018-07-08T11:06:13.710Z,138.8
2018-07-08T11:07:16.394Z,139.8
2018-07-08T11:08:19.345Z,140.8
2018-07-08T11:09:22.598Z,140.3
2018-07-08T11:10:25.859Z,139.8
2018-07-08T11:11:29.119Z,139.3
2018-07-08T11:12:31.837Z,139.8
2018-07-08T11:13:34.844Z,137.8
2018-07-08T11:14:37.832Z,138.3
2018-07-08T11:15:40.787Z,139.3
2018-07-08T11:16:43.765Z,137.8
2018-07-08T11:17:47.027Z,138.8
2018-07-08T11:18:50.302Z,138.3
2018-07-08T11:19:53.564Z,138.8
2018-07-08T11:20:57.192Z,138.3
2018-07-08T11:22:00.157Z,139.3
2018-07-08T11:23:03.420Z,137.8
2018-07-08T11:24:06.683Z,138.3
2018-07-08T11:25:09.932Z,139.3
2018-07-08T11:26:12.924Z,138.8
2018-07-08T11:27:15.900Z,137.3
2018-07-08T11:28:19.165Z,137.8
2018-07-08T11:29:22.676Z,138.3
2018-07-08T11:30:25.659Z,137.3
2018-07-08T11:31:28.647Z,138.3
2018-07-08T11:32:31.613Z,138.3
2018-07-08T11:33:34.864Z,137.8
2018-07-08T11:34:38.119Z,137.8
2018-07-08T11:35:41.075Z,138.3
2018-07-08T11:36:43.799Z,138.3
2018-07-08T11:37:46.234Z,137.8
2018-07-08T11:38:49.500Z,137.8
2018-07-08T11:39:52.764Z,137.8
2018-07-08T11:40:55.744Z,138.8
2018-07-08T11:41:59.156Z,137.8
2018-07-08T11:43:02.946Z,137.8
2018-07-08T11:44:06.275Z,138.3
2018-07-08T11:45:09.267Z,137.8
2018-07-08T11:46:12.123Z,137.3
2018-07-08T11:47:15.879Z,137.8
2018-07-08T11:48:18.859Z,137.8
2018-07-08T11:49:21.285Z,137.8
2018-07-08T11:50:24.256Z,138.3
2018-07-08T11:51:27.368Z,137.8
2018-07-08T11:52:30.620Z,138.3
2018-07-08T11:53:33.879Z,137.3
2018-07-08T11:54:36.860Z,138.3
2018-07-08T11:55:40.119Z,137.8
2018-07-08T11:56:43.376Z,137.3
2018-07-08T11:57:46.358Z,137.8
2018-07-08T11:58:49.656Z,138.8
2018-07-08T11:59:52.908Z,137.3
2018-07-08T12:00:56.164Z,138.3
2018-07-08T12:01:59.353Z,138.8
2018-07-08T12:03:02.033Z,137.8
2018-07-08T12:04:05.132Z,137.8
2018-07-08T12:05:08.244Z,138.8
2018-07-08T12:06:11.465Z,136.9
2018-07-08T12:07:14.442Z,138.8
2018-07-08T12:08:17.123Z,137.8
2018-07-08T12:09:20.386Z,138.8
2018-07-08T12:10:23.644Z,137.3
2018-07-08T12:11:26.602Z,138.8
2018-07-08T12:12:29.852Z,138.8
2018-07-08T12:13:33.116Z,138.8
2018-07-08T12:14:36.722Z,137.8
2018-07-08T12:15:39.682Z,138.8
2018-07-08T12:16:42.927Z,138.3
2018-07-08T12:17:46.184Z,138.8
2018-07-08T12:18:49.440Z,138.3
2018-07-08T12:19:52.429Z,137.3
2018-07-08T12:20:55.430Z,136.9
2018-07-08T12:21:58.696Z,137.3
2018-07-08T12:23:01.965Z,136.9
2018-07-08T12:24:05.256Z,136.4
2018-07-08T12:25:08.519Z,136.9
2018-07-08T12:26:11.240Z,135.9
2018-07-08T12:27:14.546Z,135.9
2018-07-08T12:28:17.805Z,136.9
2018-07-08T12:29:20.785Z,135.9
2018-07-08T12:30:23.505Z,136.9
2018-07-08T12:31:26.597Z,136.4
2018-07-08T12:32:29.867Z,136.4
2018-07-08T12:33:33.122Z,135.9
2018-07-08T12:34:36.394Z,136.9
2018-07-08T12:35:39.106Z,135.9
2018-07-08T12:36:42.509Z,136.4
2018-07-08T12:37:45.975Z,136.4
2018-07-08T12:38:48.966Z,137.3
2018-07-08T12:39:51.945Z,135.9
2018-07-08T12:40:54.937Z,135.9
2018-07-08T12:41:58.203Z,135.4
2018-07-08T12:43:01.565Z,136.9
2018-07-08T12:44:04.925Z,136.9
2018-07-08T12:45:07.608Z,137.3
2018-07-08T12:46:10.857Z,135.9
2018-07-08T12:47:14.117Z,137.3
2018-07-08T12:48:17.099Z,137.3
2018-07-08T12:49:20.352Z,136.4
2018-07-08T12:50:23.617Z,135.9
2018-07-08T12:51:26.976Z,135.9
2018-07-08T12:52:29.675Z,136.9
2018-07-08T12:53:32.774Z,137.3
2018-07-08T12:54:35.783Z,136.9
2018-07-08T12:55:38.875Z,136.9
2018-07-08T12:56:42.227Z,136.9
2018-07-08T12:57:45.210Z,136.9
2018-07-08T12:58:49.280Z,135.4
2018-07-08T12:59:52.020Z,135.9
2018-07-08T13:00:55.271Z,136.9
2018-07-08T13:01:57.971Z,136.4
2018-07-08T13:03:01.237Z,136.4
2018-07-08T13:04:04.195Z,136.9
2018-07-08T13:05:07.466Z,135.9
2018-07-08T13:06:10.747Z,137.3
2018-07-08T13:07:13.724Z,135.9
2018-07-08T13:08:16.700Z,135.9
2018-07-08T13:09:20.117Z,135.4
2018-07-08T13:10:22.820Z,136.9
2018-07-08T13:11:26.066Z,135.4
2018-07-08T13:12:29.334Z,136.4
2018-07-08T13:13:32.393Z,136.9
2018-07-08T13:14:35.384Z,135.4
2018-07-08T13:15:38.650Z,136.9
2018-07-08T13:16:42.236Z,135.4
2018-07-08T13:17:45.505Z,136.9
2018-07-08T13:18:48.266Z,135.9
2018-07-08T13:19:51.603Z,135.9
2018-07-08T13:20:54.945Z,136.9
2018-07-08T13:21:57.942Z,136.4
2018-07-08T13:23:00.926Z,137.8
2018-07-08T13:28:16.244Z,133.4
2018-07-08T13:29:19.503Z,136.4
2018-07-08T13:30:22.767Z,137.3
2018-07-08T13:31:26.022Z,136.4
2018-07-08T13:32:29.983Z,135.9
2018-07-08T13:33:33.119Z,135.9
2018-07-08T13:34:36.377Z,136.4
2018-07-08T13:35:39.666Z,137.8
2018-07-08T13:36:42.738Z,135.9
2018-07-08T13:37:45.742Z,137.3
2018-07-08T13:38:49.145Z,137.3
2018-07-08T13:39:52.458Z,135.9
2018-07-08T13:40:55.736Z,137.3
2018-07-08T13:41:59.006Z,137.3
2018-07-08T13:43:02.263Z,137.3
2018-07-08T13:44:05.525Z,135.9
2018-07-08T13:45:08.794Z,136.9
2018-07-08T13:46:12.052Z,136.9
2018-07-08T13:47:15.345Z,135.9
2018-07-08T13:48:18.365Z,137.3
2018-07-08T13:49:21.626Z,136.4
2018-07-08T13:50:24.590Z,137.3
2018-07-08T13:51:27.306Z,136.9
2018-07-08T13:52:30.294Z,136.4
2018-07-08T13:53:33.556Z,135.9
2018-07-08T13:54:36.824Z,137.3
2018-07-08T13:55:40.486Z,137.3
2018-07-08T13:56:43.537Z,135.9
2018-07-08T13:57:46.797Z,136.4
2018-07-08T13:58:49.788Z,137.3
2018-07-08T13:59:52.762Z,137.3
2018-07-08T14:00:56.154Z,136.9
2018-07-08T14:01:59.126Z,136.9
2018-07-08T14:03:02.436Z,136.9
2018-07-08T14:04:05.732Z,136.4
2018-07-08T14:05:08.976Z,134.4
2018-07-08T14:06:11.705Z,136.9
2018-07-08T14:07:14.687Z,137.3
2018-07-08T14:08:17.934Z,136.9
2018-07-08T14:09:21.703Z,134.4
2018-07-08T14:10:25.128Z,135.9
2018-07-08T14:11:28.370Z,135.9
2018-07-08T14:12:31.068Z,137.3
2018-07-08T14:13:34.340Z,136.9
2018-07-08T14:14:37.765Z,136.4
2018-07-08T14:15:40.487Z,135.9
2018-07-08T14:16:43.451Z,135.9
2018-07-08T14:17:46.501Z,136.4
2018-07-08T14:18:49.549Z,136.9
2018-07-08T14:19:52.237Z,137.3
2018-07-08T14:20:55.679Z,136.4
2018-07-08T14:21:58.684Z,135.4
2018-07-08T14:23:01.941Z,136.9
2018-07-08T14:24:04.926Z,135.9
2018-07-08T14:25:08.190Z,135.9
2018-07-08T14:26:11.166Z,137.3
2018-07-08T14:27:14.143Z,136.4
2018-07-08T14:28:17.400Z,136.9
2018-07-08T14:29:20.851Z,136.9
2018-07-08T14:30:23.854Z,136.4
2018-07-08T14:31:26.817Z,135.9
2018-07-08T14:32:30.121Z,136.4
2018-07-08T14:33:33.395Z,136.4
2018-07-08T14:34:36.672Z,135.9
2018-07-08T14:35:39.661Z,135.4
2018-07-08T14:36:42.924Z,134.4
2018-07-08T14:37:45.899Z,134.9
2018-07-08T14:38:48.892Z,135.4
2018-07-08T14:39:52.170Z,135.4
2018-07-08T14:40:55.443Z,135.4
2018-07-08T14:41:58.413Z,136.4
2018-07-08T14:43:01.721Z,135.9
2018-07-08T14:44:04.980Z,134.4
2018-07-08T14:45:07.961Z,135.4
2018-07-08T14:46:11.196Z,135.9
2018-07-08T14:47:14.550Z,136.4
2018-07-08T14:48:17.645Z,139.3
2018-07-08T14:49:20.902Z,135.4
2018-07-08T14:50:24.151Z,138.3
2018-07-08T14:51:27.410Z,136.4
2018-07-08T14:52:30.405Z,136.4
2018-07-08T14:53:33.445Z,136.4
2018-07-08T14:54:36.738Z,136.9
2018-07-08T14:55:39.446Z,136.4
2018-07-08T14:56:42.762Z,136.4
2018-07-08T14:57:46.024Z,137.3
2018-07-08T14:58:49.305Z,136.9
2018-07-08T14:59:52.304Z,136.4
2018-07-08T15:00:55.578Z,136.4
2018-07-08T15:01:58.278Z,137.8
2018-07-08T15:03:00.992Z,136.9
2018-07-08T15:04:04.259Z,135.4
2018-07-08T15:05:07.253Z,134.4
2018-07-08T15:06:10.512Z,135.4
2018-07-08T15:07:13.463Z,137.8
2018-07-08T15:08:16.275Z,136.9
2018-07-08T15:09:19.396Z,135.4
2018-07-08T15:10:22.735Z,136.9
2018-07-08T15:11:26.015Z,134.4
2018-07-08T15:12:29.309Z,134.4
2018-07-08T15:13:32.339Z,136.9
2018-07-08T15:14:35.052Z,136.9
2018-07-08T15:15:38.541Z,134.9
2018-07-08T15:16:42.082Z,136.9
2018-07-08T15:17:45.430Z,137.3
2018-07-08T15:18:49.070Z,136.4
2018-07-08T15:19:52.054Z,135.9
2018-07-08T15:20:55.305Z,135.9
2018-07-08T15:21:58.788Z,134.9
2018-07-08T15:23:01.596Z,136.4
2018-07-08T15:24:04.946Z,136.9
2018-07-08T15:25:08.309Z,136.9
2018-07-08T15:26:11.363Z,135.4
